Time;durP1;ratioP1;P1;durP2;ratioP2;P2;SDS_P1;SDS_P2;PMS_P1;PMS_P2;Temp;Humidity;BMP_temperature;BMP_pressure;BME280_temperature;BME280_humidity;BME280_pressure;Samples;Min_cycle;Max_cycle;Signal;HPM_P1;HPM_P2
2023/12/20 00:00:52;;;;;;;5.03;2.40;;;4.10;99.90;;;;;;4891128;29;20042;-74
2023/12/20 00:03:18;;;;;;;8.20;2.88;;;4.20;99.90;;;;;;4892934;29;20135;-74
2023/12/20 00:05:43;;;;;;;5.00;2.35;;;4.10;99.90;;;;;;4892467;29;20091;-74
2023/12/20 00:08:10;;;;;;;4.55;2.40;;;4.20;99.90;;;;;;4892601;29;20508;-74
2023/12/20 00:10:35;;;;;;;4.10;2.25;;;4.20;99.90;;;;;;4894014;29;20108;-74
2023/12/20 00:13:01;;;;;;;5.63;2.33;;;4.20;99.90;;;;;;4893095;29;20090;-74
2023/12/20 00:15:27;;;;;;;3.65;1.60;;;4.20;99.90;;;;;;4890769;29;20036;-74
2023/12/20 00:17:52;;;;;;;5.00;2.30;;;4.00;99.90;;;;;;4898894;29;20040;-74
2023/12/20 00:20:18;;;;;;;5.63;2.25;;;4.30;99.90;;;;;;4897583;29;20052;-74
2023/12/20 00:22:44;;;;;;;5.43;2.58;;;4.20;99.90;;;;;;4895910;29;20134;-74
2023/12/20 00:25:10;;;;;;;4.72;2.22;;;4.30;99.90;;;;;;4898903;29;20063;-74
2023/12/20 00:27:35;;;;;;;4.63;2.40;;;4.40;99.90;;;;;;4897947;29;20040;-74
2023/12/20 00:30:01;;;;;;;5.35;3.05;;;4.40;99.90;;;;;;4896334;29;20042;-74
2023/12/20 00:32:27;;;;;;;4.57;2.30;;;4.30;99.90;;;;;;4896343;29;20113;-73
2023/12/20 00:34:52;;;;;;;4.55;2.47;;;4.00;99.90;;;;;;4897740;29;20119;-74
2023/12/20 00:37:18;;;;;;;4.22;2.13;;;3.70;99.90;;;;;;4896962;29;20431;-73
2023/12/20 00:39:43;;;;;;;4.43;2.35;;;3.90;99.90;;;;;;4898446;29;20491;-74
2023/12/20 00:42:09;;;;;;;3.90;1.67;;;3.90;99.90;;;;;;4895411;29;20398;-74
2023/12/20 00:44:35;;;;;;;4.78;2.47;;;4.00;99.90;;;;;;4897453;29;20044;-74
2023/12/20 00:47:01;;;;;;;5.07;2.38;;;4.20;99.90;;;;;;4898590;29;20498;-73
2023/12/20 00:49:27;;;;;;;5.68;2.90;;;4.20;99.90;;;;;;4896964;29;20993;-74
2023/12/20 00:51:52;;;;;;;4.55;2.05;;;4.30;99.90;;;;;;4894664;29;20475;-74
2023/12/20 00:54:18;;;;;;;4.43;2.05;;;4.30;99.90;;;;;;4898961;29;20036;-74
2023/12/20 00:56:44;;;;;;;4.28;2.00;;;4.30;99.90;;;;;;4897561;29;20028;-73
2023/12/20 00:59:10;;;;;;;3.42;1.90;;;4.40;99.90;;;;;;4897186;29;20043;-74
2023/12/20 01:01:36;;;;;;;5.63;2.30;;;4.40;99.90;;;;;;4897987;29;20055;-74
2023/12/20 01:04:02;;;;;;;5.82;2.17;;;4.40;99.90;;;;;;4897838;29;20032;-74
2023/12/20 01:06:28;;;;;;;5.57;2.20;;;4.30;99.90;;;;;;4896216;29;21370;-74
2023/12/20 01:08:53;;;;;;;5.50;2.65;;;4.30;99.90;;;;;;4898414;29;20030;-74
2023/12/20 01:11:19;;;;;;;5.60;2.70;;;4.10;99.90;;;;;;4897604;29;20040;-73
2023/12/20 01:13:45;;;;;;;7.40;2.88;;;4.10;99.90;;;;;;4895716;29;20055;-73
2023/12/20 01:16:12;;;;;;;4.47;2.58;;;4.00;99.90;;;;;;4896826;29;20758;-73
2023/12/20 01:18:38;;;;;;;4.57;2.45;;;3.90;99.90;;;;;;4896924;29;20147;-73
2023/12/20 01:21:04;;;;;;;4.03;2.05;;;3.80;99.90;;;;;;4896242;29;20122;-74
2023/12/20 01:23:31;;;;;;;6.47;2.92;;;4.00;99.90;;;;;;4896652;29;20063;-74
2023/12/20 01:25:56;;;;;;;6.57;3.63;;;3.80;99.90;;;;;;4897728;29;20168;-74
2023/12/20 01:28:22;;;;;;;4.90;2.28;;;3.70;99.90;;;;;;4899791;29;20059;-74
2023/12/20 01:30:48;;;;;;;4.60;2.58;;;3.90;99.90;;;;;;4900534;29;20158;-74
2023/12/20 01:33:13;;;;;;;4.95;2.13;;;4.10;99.90;;;;;;4899978;29;20569;-74
2023/12/20 01:35:39;;;;;;;7.20;2.53;;;4.20;99.90;;;;;;4900354;29;20699;-74
2023/12/20 01:38:05;;;;;;;4.57;2.20;;;3.90;99.90;;;;;;4884235;29;20044;-74
2023/12/20 01:40:30;;;;;;;4.13;2.28;;;3.70;99.90;;;;;;4901599;29;20486;-74
2023/12/20 01:43:01;;;;;;;5.50;2.97;;;3.50;99.90;;;;;;4898201;29;20043;-74
2023/12/20 01:45:27;;;;;;;4.65;2.53;;;3.60;99.90;;;;;;4900237;29;20503;-74
2023/12/20 01:47:53;;;;;;;6.60;3.03;;;3.50;99.90;;;;;;4901493;29;20036;-74
2023/12/20 01:50:20;;;;;;;6.38;2.47;;;4.00;99.90;;;;;;4900279;29;20036;-74
2023/12/20 01:52:46;;;;;;;4.43;2.65;;;3.90;99.90;;;;;;4899416;29;20047;-73
2023/12/20 01:55:14;;;;;;;5.90;2.83;;;3.80;99.90;;;;;;4901619;29;20040;-73
2023/12/20 01:57:42;;;;;;;4.78;2.03;;;3.70;99.90;;;;;;4900359;29;20090;-74
2023/12/20 02:00:11;;;;;;;5.15;2.17;;;3.40;99.90;;;;;;4898968;29;20140;-74
2023/12/20 02:02:39;;;;;;;3.88;1.77;;;3.40;99.90;;;;;;4901011;29;20551;-74
2023/12/20 02:05:09;;;;;;;4.65;2.00;;;3.90;99.90;;;;;;4901643;29;20044;-74
2023/12/20 02:07:35;;;;;;;4.20;2.13;;;4.10;99.90;;;;;;4899150;29;20535;-74
2023/12/20 02:10:01;;;;;;;4.15;1.70;;;3.80;99.90;;;;;;4900356;29;20130;-74
2023/12/20 02:12:27;;;;;;;5.68;1.88;;;3.80;99.90;;;;;;4901250;29;20065;-74
2023/12/20 02:14:53;;;;;;;7.00;2.60;;;4.00;99.90;;;;;;4899488;29;20118;-74
2023/12/20 02:17:20;;;;;;;6.40;2.08;;;3.90;99.90;;;;;;4900095;29;20076;-74
2023/12/20 02:19:45;;;;;;;3.70;2.22;;;3.70;99.90;;;;;;4900645;29;20509;-74
2023/12/20 02:22:12;;;;;;;9.80;2.40;;;4.10;99.90;;;;;;4899113;29;20051;-74
2023/12/20 02:24:38;;;;;;;7.40;3.30;;;4.10;99.90;;;;;;4899683;29;20581;-74
2023/12/20 02:27:06;;;;;;;7.88;3.90;;;3.60;99.90;;;;;;4900670;29;20040;-74
2023/12/20 02:29:33;;;;;;;6.78;3.67;;;3.40;99.90;;;;;;4899187;29;20032;-74
2023/12/20 02:31:59;;;;;;;4.68;2.20;;;3.10;99.90;;;;;;4899671;29;20040;-74
2023/12/20 02:34:24;;;;;;;5.25;1.98;;;3.30;99.90;;;;;;4900614;29;21187;-74
2023/12/20 02:36:50;;;;;;;3.95;1.92;;;3.70;99.90;;;;;;4899547;29;20115;-74
2023/12/20 02:39:16;;;;;;;3.75;1.75;;;3.90;99.90;;;;;;4898397;29;20562;-74
2023/12/20 02:41:42;;;;;;;7.97;2.72;;;4.00;99.90;;;;;;4898302;29;20028;-74
2023/12/20 02:44:07;;;;;;;4.95;2.38;;;4.30;99.90;;;;;;4899498;29;20036;-74
2023/12/20 02:46:33;;;;;;;3.22;1.73;;;4.50;99.90;;;;;;4899459;29;20028;-74
2023/12/20 02:48:59;;;;;;;4.70;2.38;;;4.20;99.90;;;;;;4900392;29;20467;-73
2023/12/20 02:51:24;;;;;;;3.63;1.67;;;4.20;99.90;;;;;;4897478;29;20398;-74
2023/12/20 02:53:50;;;;;;;5.93;2.60;;;4.20;99.90;;;;;;4896083;29;20158;-74
2023/12/20 02:56:16;;;;;;;4.13;1.90;;;4.20;99.90;;;;;;4900104;29;20044;-74
2023/12/20 02:58:41;;;;;;;3.55;1.90;;;4.00;99.90;;;;;;4899011;29;20036;-74
2023/12/20 03:01:07;;;;;;;4.05;2.17;;;4.30;99.90;;;;;;4899729;29;20048;-75
2023/12/20 03:03:33;;;;;;;4.70;1.85;;;4.40;99.90;;;;;;4899577;29;20036;-73
2023/12/20 03:05:59;;;;;;;4.20;2.10;;;4.60;99.90;;;;;;4896130;29;20072;-73
2023/12/20 03:08:25;;;;;;;5.90;2.33;;;4.60;99.90;;;;;;4898305;29;20044;-74
2023/12/20 03:10:51;;;;;;;9.02;4.60;;;4.40;99.90;;;;;;4899153;29;20517;-74
2023/12/20 03:13:16;;;;;;;11.32;6.07;;;3.90;99.90;;;;;;4896517;29;20092;-74
2023/12/20 03:15:42;;;;;;;8.75;4.15;;;3.90;99.90;;;;;;4899060;29;20483;-73
2023/12/20 03:18:08;;;;;;;7.32;4.28;;;3.80;99.90;;;;;;4882052;29;20099;-74
2023/12/20 03:20:34;;;;;;;6.68;3.35;;;3.40;99.90;;;;;;4898236;29;20056;-73
2023/12/20 03:23:03;;;;;;;6.53;3.05;;;3.50;99.90;;;;;;4896657;29;20032;-74
2023/12/20 03:25:28;;;;;;;5.97;2.35;;;3.60;99.90;;;;;;4899632;29;20036;-74
2023/12/20 03:27:54;;;;;;;6.93;3.38;;;3.90;99.90;;;;;;4898880;29;20526;-74
2023/12/20 03:30:20;;;;;;;6.65;2.65;;;3.60;99.90;;;;;;4898007;29;20537;-73
2023/12/20 03:32:47;;;;;;;8.65;4.35;;;3.30;99.90;;;;;;4898815;29;20040;-74
2023/12/20 03:35:13;;;;;;;7.30;3.45;;;3.20;99.90;;;;;;4898344;29;20028;-74
2023/12/20 03:37:38;;;;;;;6.85;3.45;;;3.30;99.90;;;;;;4896074;29;20095;-74
2023/12/20 03:40:05;;;;;;;5.82;3.08;;;3.40;99.90;;;;;;4898883;29;20127;-74
2023/12/20 03:42:30;;;;;;;5.57;2.78;;;3.40;99.90;;;;;;4896577;29;20051;-74
2023/12/20 03:44:56;;;;;;;7.50;2.58;;;3.40;99.90;;;;;;4898367;29;20391;-74
2023/12/20 03:47:22;;;;;;;5.93;3.22;;;3.30;99.90;;;;;;4898496;29;20046;-74
2023/12/20 03:49:48;;;;;;;5.97;2.78;;;3.20;99.90;;;;;;4896972;29;20779;-73
2023/12/20 03:52:13;;;;;;;5.57;2.47;;;3.20;99.90;;;;;;4896927;29;20402;-74
2023/12/20 03:54:42;;;;;;;5.30;2.55;;;3.10;99.90;;;;;;4898783;29;20088;-74
2023/12/20 03:57:08;;;;;;;4.07;1.92;;;3.10;99.90;;;;;;4898324;29;20483;-74
2023/12/20 03:59:37;;;;;;;4.53;2.42;;;3.20;99.90;;;;;;4897493;29;20107;-74
2023/12/20 04:02:03;;;;;;;5.20;2.80;;;3.30;99.90;;;;;;4895085;29;20491;-74
2023/12/20 04:04:29;;;;;;;5.05;2.30;;;3.30;99.90;;;;;;4890153;29;20032;-74
2023/12/20 04:06:55;;;;;;;4.47;2.08;;;3.40;99.90;;;;;;4892832;29;20545;-74
2023/12/20 04:09:20;;;;;;;4.47;1.98;;;3.20;99.90;;;;;;4892458;29;20029;-74
2023/12/20 04:11:46;;;;;;;4.93;2.15;;;3.30;99.90;;;;;;4893926;29;20043;-74
2023/12/20 04:14:12;;;;;;;3.55;1.90;;;3.30;99.90;;;;;;4892343;29;20036;-73
2023/12/20 04:16:38;;;;;;;4.55;2.08;;;3.40;99.90;;;;;;4892986;29;20040;-74
2023/12/20 04:19:04;;;;;;;3.35;1.90;;;3.40;99.90;;;;;;4891563;29;20051;-74
2023/12/20 04:21:30;;;;;;;6.20;2.10;;;3.20;99.90;;;;;;4891574;29;20206;-74
2023/12/20 04:23:56;;;;;;;6.65;2.88;;;3.20;99.90;;;;;;4889666;29;20032;-74
2023/12/20 04:26:22;;;;;;;12.43;2.38;;;3.20;99.90;;;;;;4892155;29;20117;-74
2023/12/20 04:28:48;;;;;;;5.80;2.38;;;3.20;99.90;;;;;;4890899;29;20040;-74
2023/12/20 04:31:13;;;;;;;6.28;2.58;;;3.30;99.90;;;;;;4892344;29;22015;-74
2023/12/20 04:33:39;;;;;;;6.00;2.90;;;3.40;99.90;;;;;;4891673;29;20447;-74
2023/12/20 04:36:05;;;;;;;4.78;1.90;;;3.50;99.90;;;;;;4889898;29;20043;-74
2023/12/20 04:38:30;;;;;;;4.57;2.38;;;3.60;99.90;;;;;;4891306;29;20039;-74
2023/12/20 04:40:56;;;;;;;4.65;2.25;;;3.60;99.90;;;;;;4891941;29;20195;-74
2023/12/20 04:43:22;;;;;;;4.10;2.30;;;3.50;99.90;;;;;;4888914;29;20044;-74
2023/12/20 04:45:48;;;;;;;4.40;2.22;;;3.50;99.90;;;;;;4890444;29;20033;-74
2023/12/20 04:48:13;;;;;;;4.57;2.45;;;3.50;99.90;;;;;;4892146;29;21155;-74
2023/12/20 04:50:39;;;;;;;4.88;2.50;;;3.50;99.90;;;;;;4873492;29;20771;-75
2023/12/20 04:53:05;;;;;;;4.72;2.30;;;3.50;99.90;;;;;;4890421;29;20036;-73
2023/12/20 04:55:30;;;;;;;4.28;1.85;;;3.50;99.90;;;;;;4891703;29;20028;-74
2023/12/20 04:57:56;;;;;;;6.45;1.95;;;3.40;99.90;;;;;;4891696;29;20466;-74
2023/12/20 05:00:22;;;;;;;5.28;2.33;;;3.40;99.90;;;;;;4889821;29;20044;-74
2023/12/20 05:02:47;;;;;;;5.72;2.70;;;3.40;99.90;;;;;;4893554;29;21983;-74
2023/12/20 05:05:15;;;;;;;4.20;1.83;;;3.30;99.90;;;;;;4894422;29;20479;-74
2023/12/20 05:07:40;;;;;;;3.72;2.42;;;3.40;99.90;;;;;;4893179;29;20032;-75
2023/12/20 05:10:08;;;;;;;3.45;1.50;;;3.40;99.90;;;;;;4895250;29;20044;-74
2023/12/20 05:12:34;;;;;;;4.93;2.35;;;3.40;99.90;;;;;;4893496;29;20036;-74
2023/12/20 05:15:00;;;;;;;3.97;1.98;;;3.30;99.90;;;;;;4893990;29;20112;-74
2023/12/20 05:17:26;;;;;;;4.95;2.30;;;3.30;99.90;;;;;;4894728;29;20039;-74
2023/12/20 05:19:51;;;;;;;4.43;2.28;;;3.30;99.90;;;;;;4894011;29;20052;-74
2023/12/20 05:22:18;;;;;;;4.57;2.40;;;3.30;99.90;;;;;;4891362;29;20596;-74
2023/12/20 05:24:44;;;;;;;4.65;2.00;;;3.00;99.90;;;;;;4894125;29;20066;-74
2023/12/20 05:27:09;;;;;;;3.33;1.60;;;3.10;99.90;;;;;;4893899;29;20483;-75
2023/12/20 05:29:35;;;;;;;3.83;2.10;;;3.40;99.90;;;;;;4894773;29;21702;-74
2023/12/20 05:32:01;;;;;;;4.75;2.28;;;3.50;99.90;;;;;;4894629;29;20176;-74
2023/12/20 05:34:26;;;;;;;4.95;2.20;;;3.60;99.90;;;;;;4892924;29;20067;-74
2023/12/20 05:36:52;;;;;;;5.43;1.92;;;3.40;99.90;;;;;;4892958;29;20063;-75
2023/12/20 05:39:18;;;;;;;4.90;2.70;;;3.30;99.90;;;;;;4894427;29;20622;-74
2023/12/20 05:41:43;;;;;;;6.18;2.38;;;3.30;99.90;;;;;;4894557;29;20528;-74
2023/12/20 05:44:10;;;;;;;5.13;2.88;;;3.20;99.90;;;;;;4892274;29;20076;-74
2023/12/20 05:46:36;;;;;;;6.60;2.80;;;3.10;99.90;;;;;;4894011;29;20036;-74
2023/12/20 05:49:02;;;;;;;4.10;2.00;;;3.10;99.90;;;;;;4893756;29;21361;-74
2023/12/20 05:51:28;;;;;;;5.40;2.85;;;3.10;99.90;;;;;;4892667;29;20040;-73
2023/12/20 05:53:53;;;;;;;3.80;1.80;;;3.40;99.90;;;;;;4894884;29;20056;-74
2023/12/20 05:56:19;;;;;;;3.25;1.80;;;3.50;99.90;;;;;;4893533;29;20039;-74
2023/12/20 05:58:45;;;;;;;6.00;3.05;;;3.50;99.90;;;;;;4893140;29;20119;-74
2023/12/20 06:01:10;;;;;;;4.95;2.63;;;3.30;99.90;;;;;;4895674;29;20681;-74
2023/12/20 06:03:36;;;;;;;6.05;2.45;;;3.40;99.90;;;;;;4892879;29;20035;-74
2023/12/20 06:06:08;;;;;;;5.18;2.90;;;3.40;99.90;;;;;;4892460;29;20036;-74
2023/12/20 06:08:34;;;;;;;6.80;3.08;;;3.30;99.90;;;;;;4891221;29;20475;-74
2023/12/20 06:11:00;;;;;;;4.93;2.30;;;3.40;99.90;;;;;;4893284;29;20099;-74
2023/12/20 06:13:26;;;;;;;7.43;2.40;;;3.30;99.90;;;;;;4890676;29;20020;-74
2023/12/20 06:15:54;;;;;;;5.78;2.30;;;3.40;99.90;;;;;;4893149;29;20032;-74
2023/12/20 06:18:19;;;;;;;4.38;2.10;;;3.70;99.90;;;;;;4894833;29;20147;-74
2023/12/20 06:20:45;;;;;;;6.60;2.90;;;3.80;99.90;;;;;;4892736;29;20515;-74
2023/12/20 06:23:11;;;;;;;6.40;3.78;;;3.80;99.90;;;;;;4891192;29;20047;-75
2023/12/20 06:25:36;;;;;;;7.05;4.43;;;3.70;99.90;;;;;;4888910;29;20036;-74
2023/12/20 06:28:02;;;;;;;5.72;4.68;;;3.70;99.90;;;;;;4893119;29;20036;-74
2023/12/20 06:30:28;;;;;;;5.82;3.20;;;3.80;99.90;;;;;;4893254;29;20032;-74
2023/12/20 06:32:57;;;;;;;5.50;3.05;;;3.80;99.90;;;;;;4892468;29;20493;-74
2023/12/20 06:35:22;;;;;;;4.90;3.15;;;3.60;99.90;;;;;;4889492;29;20877;-74
2023/12/20 06:37:48;;;;;;;7.20;3.47;;;3.30;99.90;;;;;;4892696;29;20128;-74
2023/12/20 06:40:14;;;;;;;5.93;3.10;;;3.20;99.90;;;;;;4893319;29;20406;-74
2023/12/20 06:42:39;;;;;;;6.82;3.08;;;3.30;99.90;;;;;;4891307;29;20557;-74
2023/12/20 06:45:05;;;;;;;7.00;3.53;;;3.40;99.90;;;;;;4891468;29;20032;-75
2023/12/20 06:47:31;;;;;;;5.15;2.70;;;3.30;99.90;;;;;;4894104;29;20127;-74
2023/12/20 06:49:57;;;;;;;5.15;2.92;;;3.40;99.90;;;;;;4892006;29;20786;-74
2023/12/20 06:52:22;;;;;;;6.35;2.53;;;3.40;99.90;;;;;;4892487;29;20458;-74
2023/12/20 06:54:48;;;;;;;6.90;2.78;;;3.50;99.90;;;;;;4896281;29;20065;-73
2023/12/20 06:57:14;;;;;;;5.60;3.08;;;3.70;99.90;;;;;;4892439;29;20173;-74
2023/12/20 06:59:40;;;;;;;6.28;2.78;;;3.70;99.90;;;;;;4892204;29;20220;-73
2023/12/20 07:02:06;;;;;;;7.93;4.88;;;3.70;99.90;;;;;;4893596;29;20509;-73
2023/12/20 07:04:32;;;;;;;7.60;4.20;;;3.70;99.90;;;;;;4890743;29;20042;-73
2023/12/20 07:07:00;;;;;;;6.47;3.55;;;3.60;99.90;;;;;;4890815;29;20050;-74
2023/12/20 07:09:26;;;;;;;5.28;3.00;;;3.80;99.90;;;;;;4892142;29;20578;-74
2023/12/20 07:11:52;;;;;;;6.30;3.65;;;3.80;99.90;;;;;;4891313;29;20067;-73
2023/12/20 07:14:18;;;;;;;7.75;4.20;;;3.80;99.90;;;;;;4890954;29;20059;-73
2023/12/20 07:16:44;;;;;;;11.32;4.72;;;3.70;99.90;;;;;;4892794;29;21298;-73
2023/12/20 07:19:09;;;;;;;30.00;15.35;;;3.40;99.90;;;;;;4893578;29;20085;-73
2023/12/20 07:21:35;;;;;;;18.67;9.02;;;3.20;99.90;;;;;;4893873;29;20096;-72
2023/12/20 07:24:01;;;;;;;11.35;5.90;;;3.20;99.90;;;;;;4894047;29;20048;-73
2023/12/20 07:26:26;;;;;;;10.35;5.18;;;3.40;99.90;;;;;;4898747;29;20267;-73
2023/12/20 07:28:52;;;;;;;9.77;3.92;;;3.30;99.90;;;;;;4898142;29;20119;-74
2023/12/20 07:31:18;;;;;;;11.05;5.03;;;3.40;99.90;;;;;;4896778;29;20048;-74
2023/12/20 07:33:43;;;;;;;8.15;4.68;;;3.70;99.90;;;;;;4892350;29;20056;-73
2023/12/20 07:36:09;;;;;;;10.25;4.47;;;3.50;99.90;;;;;;4890852;29;20036;-74
2023/12/20 07:38:35;;;;;;;8.65;4.55;;;3.70;99.90;;;;;;4891578;29;20451;-72
2023/12/20 07:41:01;;;;;;;7.32;3.83;;;3.60;99.90;;;;;;4890628;29;20050;-74
2023/12/20 07:43:27;;;;;;;8.52;3.17;;;3.70;99.90;;;;;;4892279;29;20048;-73
2023/12/20 07:45:52;;;;;;;6.35;3.03;;;3.80;99.90;;;;;;4892124;29;20047;-74
2023/12/20 07:48:18;;;;;;;5.82;2.72;;;4.00;99.90;;;;;;4889542;29;20044;-73
2023/12/20 07:50:44;;;;;;;5.88;2.67;;;4.00;99.90;;;;;;4893220;29;20110;-73
2023/12/20 07:53:09;;;;;;;5.03;2.45;;;4.10;99.90;;;;;;4891413;29;20067;-72
2023/12/20 07:55:35;;;;;;;7.50;2.90;;;4.20;99.90;;;;;;4891115;29;20522;-73
2023/12/20 07:58:01;;;;;;;6.97;3.38;;;4.30;99.90;;;;;;4889223;29;20040;-73
2023/12/20 08:00:27;;;;;;;6.68;3.63;;;4.40;99.90;;;;;;4891071;29;20096;-72
2023/12/20 08:02:52;;;;;;;6.18;3.13;;;4.50;99.90;;;;;;4891384;29;20043;-73
2023/12/20 08:05:18;;;;;;;5.55;2.40;;;4.60;99.90;;;;;;4892695;29;20064;-72
2023/12/20 08:07:44;;;;;;;3.60;1.90;;;4.60;99.90;;;;;;4890412;29;20079;-73
2023/12/20 08:10:11;;;;;;;4.53;2.53;;;4.80;99.90;;;;;;4890484;29;20039;-74
2023/12/20 08:12:36;;;;;;;4.97;2.20;;;4.90;99.90;;;;;;4892595;29;20674;-72
2023/12/20 08:15:04;;;;;;;5.40;2.28;;;5.00;99.90;;;;;;4891714;29;20040;-73
2023/12/20 08:17:29;;;;;;;6.43;3.33;;;5.00;99.90;;;;;;4889938;29;20028;-72
2023/12/20 08:19:55;;;;;;;7.70;4.05;;;4.70;99.90;;;;;;4892123;29;20107;-72
2023/12/20 08:22:21;;;;;;;7.32;4.22;;;4.30;99.90;;;;;;4891149;29;20036;-71
2023/12/20 08:24:46;;;;;;;9.85;4.20;;;4.10;99.90;;;;;;4884994;29;20265;-72
2023/12/20 08:27:12;;;;;;;10.10;5.20;;;3.90;99.90;;;;;;4890555;29;20036;-72
2023/12/20 08:29:38;;;;;;;7.82;4.20;;;4.00;99.90;;;;;;4890740;29;20032;-72
2023/12/20 08:32:04;;;;;;;5.75;3.08;;;4.00;99.90;;;;;;4890227;29;20503;-72
2023/12/20 08:34:30;;;;;;;6.30;3.78;;;4.10;99.90;;;;;;4891787;29;20483;-73
2023/12/20 08:36:55;;;;;;;7.60;4.50;;;4.10;99.90;;;;;;4893076;29;20051;-72
2023/12/20 08:39:21;;;;;;;8.85;4.13;;;3.80;99.90;;;;;;4895464;29;20455;-72
2023/12/20 08:41:47;;;;;;;7.40;3.45;;;3.90;99.90;;;;;;4897672;29;20513;-72
2023/12/20 08:44:13;;;;;;;8.15;3.80;;;4.00;99.90;;;;;;4896525;29;20095;-72
2023/12/20 08:46:38;;;;;;;9.25;4.40;;;4.20;99.90;;;;;;4895524;29;20039;-72
2023/12/20 08:49:04;;;;;;;6.68;3.95;;;4.00;99.90;;;;;;4897960;29;20040;-73
2023/12/20 08:51:30;;;;;;;8.25;3.60;;;4.00;99.90;;;;;;4896632;29;20043;-74
2023/12/20 08:53:56;;;;;;;4.70;2.78;;;4.40;99.90;;;;;;4895785;29;20043;-74
2023/12/20 08:56:21;;;;;;;5.47;3.45;;;4.80;99.90;;;;;;4897855;29;20044;-73
2023/12/20 08:58:47;;;;;;;9.02;3.58;;;4.80;99.90;;;;;;4896645;29;20043;-73
2023/12/20 09:01:14;;;;;;;12.00;5.75;;;4.50;99.90;;;;;;4893918;29;20079;-74
2023/12/20 09:03:40;;;;;;;4.00;2.30;;;4.60;99.90;;;;;;4894460;29;20524;-74
2023/12/20 09:06:06;;;;;;;3.65;1.70;;;5.10;99.90;;;;;;4894322;29;20043;-74
2023/12/20 09:08:32;;;;;;;4.47;2.40;;;5.40;99.90;;;;;;4892027;29;20040;-74
2023/12/20 09:10:58;;;;;;;8.15;3.95;;;5.50;99.80;;;;;;4894036;29;20036;-74
2023/12/20 09:13:31;;;;;;;6.55;3.50;;;5.40;99.90;;;;;;4894679;29;20799;-73
2023/12/20 09:15:57;;;;;;;6.87;3.60;;;4.90;99.90;;;;;;4893907;29;20046;-73
2023/12/20 09:18:23;;;;;;;10.07;3.95;;;4.70;99.90;;;;;;4892725;29;20063;-73
2023/12/20 09:20:49;;;;;;;7.18;3.45;;;4.60;99.90;;;;;;4894591;29;20948;-74
2023/12/20 09:23:15;;;;;;;6.85;3.60;;;4.60;99.90;;;;;;4893764;29;20107;-73
2023/12/20 09:25:40;;;;;;;8.90;4.10;;;4.70;99.90;;;;;;4892924;29;20144;-74
2023/12/20 09:28:06;;;;;;;5.68;2.83;;;4.80;99.90;;;;;;4890993;29;20043;-74
2023/12/20 09:30:32;;;;;;;9.80;4.10;;;5.00;99.90;;;;;;4891561;29;20065;-74
2023/12/20 09:32:57;;;;;;;8.50;4.20;;;5.10;99.90;;;;;;4892723;29;20028;-73
2023/12/20 09:35:24;;;;;;;11.10;4.03;;;5.30;99.90;;;;;;4894684;29;20036;-74
2023/12/20 09:37:49;;;;;;;6.53;3.55;;;5.40;99.90;;;;;;4892796;29;20043;-74
2023/12/20 09:40:18;;;;;;;7.75;3.22;;;5.50;99.90;;;;;;4894394;29;20513;-74
2023/12/20 09:42:50;;;;;;;6.05;3.35;;;5.40;99.90;;;;;;4892839;29;20036;-73
2023/12/20 09:45:19;;;;;;;7.13;4.13;;;5.60;99.90;;;;;;4892534;29;20071;-74
2023/12/20 09:47:45;;;;;;;6.68;3.42;;;5.50;99.90;;;;;;4890314;29;20075;-74
2023/12/20 09:50:12;;;;;;;7.72;3.20;;;5.50;99.90;;;;;;4892673;29;20562;-74
2023/12/20 09:52:39;;;;;;;5.40;2.92;;;5.40;99.90;;;;;;4892257;29;20495;-73
2023/12/20 09:55:06;;;;;;;7.03;2.85;;;5.50;99.90;;;;;;4892810;29;20043;-73
2023/12/20 09:57:33;;;;;;;7.13;3.58;;;5.70;99.90;;;;;;4892815;29;20565;-74
2023/12/20 09:59:59;;;;;;;5.45;3.13;;;5.60;99.90;;;;;;4892641;29;20050;-73
2023/12/20 10:02:29;;;;;;;7.40;3.35;;;5.60;99.90;;;;;;4891933;29;20036;-74
2023/12/20 10:04:55;;;;;;;7.43;3.78;;;5.80;99.90;;;;;;4892871;29;20040;-74
2023/12/20 10:07:22;;;;;;;8.07;3.80;;;5.70;99.90;;;;;;4891659;29;20067;-74
2023/12/20 10:09:48;;;;;;;7.50;3.95;;;5.50;99.90;;;;;;4890698;29;20036;-74
2023/12/20 10:12:14;;;;;;;7.50;3.20;;;5.40;99.90;;;;;;4893549;29;20091;-73
2023/12/20 10:14:40;;;;;;;7.57;3.05;;;5.50;99.90;;;;;;4893174;29;20036;-74
2023/12/20 10:17:06;;;;;;;5.97;2.97;;;5.50;99.90;;;;;;4891469;29;20024;-74
2023/12/20 10:19:32;;;;;;;6.25;3.10;;;5.50;99.90;;;;;;4892577;29;20075;-74
2023/12/20 10:22:04;;;;;;;7.40;3.90;;;5.50;99.90;;;;;;4893063;29;20998;-75
2023/12/20 10:24:30;;;;;;;7.28;3.80;;;5.50;99.90;;;;;;4891699;29;20040;-73
2023/12/20 10:27:06;;;;;;;11.60;3.50;;;5.40;99.90;;;;;;4891292;29;20044;-73
2023/12/20 10:29:41;;;;;;;6.57;3.60;;;5.50;99.90;;;;;;4891892;29;20044;-73
2023/12/20 10:32:35;;;;;;;;;;;5.40;99.90;;;;;;4892329;29;20032;-73
2023/12/20 10:35:02;;;;;;;7.60;3.60;;;5.50;99.90;;;;;;4875160;29;19919;-73
2023/12/20 10:37:28;;;;;;;6.47;3.45;;;5.50;99.90;;;;;;4892482;29;20435;-73
2023/12/20 10:39:57;;;;;;;6.25;3.38;;;5.50;99.90;;;;;;4890923;29;20131;-73
2023/12/20 10:42:26;;;;;;;4.75;2.75;;;5.60;99.90;;;;;;4892544;29;20047;-73
2023/12/20 10:44:53;;;;;;;6.75;3.58;;;5.60;99.90;;;;;;4893026;29;20036;-73
2023/12/20 10:47:20;;;;;;;8.95;3.80;;;5.50;99.90;;;;;;4890659;29;20039;-73
2023/12/20 10:49:46;;;;;;;6.70;3.45;;;5.60;99.90;;;;;;4892147;29;20047;-74
2023/12/20 10:52:12;;;;;;;6.88;4.05;;;5.60;99.90;;;;;;4892458;29;20036;-72
2023/12/20 10:54:41;;;;;;;8.20;3.03;;;5.60;99.90;;;;;;4890875;29;20044;-73
2023/12/20 10:57:07;;;;;;;5.35;2.80;;;5.80;99.90;;;;;;4889941;29;20115;-73
2023/12/20 10:59:36;;;;;;;6.15;3.28;;;6.00;99.90;;;;;;4891475;29;20036;-73
2023/12/20 11:02:05;;;;;;;7.30;3.05;;;6.10;99.80;;;;;;4890927;29;20032;-73
2023/12/20 11:04:53;;;;;;;5.93;2.63;;;6.30;99.10;;;;;;4890682;29;20646;-74
2023/12/20 11:07:49;;;;;;;5.75;2.30;;;6.50;98.50;;;;;;4890492;29;20068;-74
2023/12/20 11:10:23;;;;;;;9.73;3.45;;;6.60;98.90;;;;;;4890576;29;20032;-73
2023/12/20 11:13:27;;;;;;;8.73;5.22;;;6.40;99.90;;;;;;4891423;29;20127;-73
2023/12/20 11:15:52;;;;;;;10.02;4.40;;;6.00;99.90;;;;;;4887127;29;20052;-73
2023/12/20 11:18:18;;;;;;;7.85;4.78;;;5.90;99.90;;;;;;4893152;29;20584;-74
2023/12/20 11:20:44;;;;;;;8.88;4.75;;;5.90;99.90;;;;;;4894283;29;20604;-73
2023/12/20 11:23:10;;;;;;;7.85;4.15;;;5.80;99.90;;;;;;4895274;29;20040;-74
2023/12/20 11:26:08;;;;;;;11.77;6.35;;;5.90;99.90;;;;;;4894320;29;20416;-73
2023/12/20 11:28:34;;;;;;;9.15;4.95;;;6.00;99.90;;;;;;4853442;29;20396;-74
2023/12/20 11:31:02;;;;;;;8.60;4.88;;;6.00;99.90;;;;;;4893905;29;20047;-73
2023/12/20 11:33:36;;;;;;;8.18;4.68;;;6.10;99.90;;;;;;4894001;29;20036;-74
2023/12/20 11:36:02;;;;;;;9.65;4.07;;;6.20;99.90;;;;;;4895662;29;20051;-74
2023/12/20 11:38:37;;;;;;;8.38;3.42;;;6.20;99.90;;;;;;4893927;29;20154;-73
2023/12/20 11:41:06;;;;;;;10.23;4.82;;;6.30;99.90;;;;;;4893766;29;20060;-74
2023/12/20 11:43:38;;;;;;;6.47;3.42;;;6.30;99.90;;;;;;4893712;29;20040;-71
2023/12/20 11:46:09;;;;;;;6.43;3.75;;;6.30;99.90;;;;;;4894180;29;20040;-73
2023/12/20 11:48:36;;;;;;;7.22;4.07;;;6.40;99.90;;;;;;4894378;29;20036;-74
2023/12/20 11:51:03;;;;;;;6.78;3.53;;;6.50;99.90;;;;;;4893125;29;20048;-73
2023/12/20 11:53:30;;;;;;;9.38;4.00;;;6.30;99.90;;;;;;4893474;29;20036;-74
2023/12/20 11:55:56;;;;;;;9.35;4.00;;;6.40;99.90;;;;;;4876589;29;20542;-73
2023/12/20 11:58:22;;;;;;;7.90;4.25;;;6.40;99.90;;;;;;4892921;29;20040;-74
2023/12/20 12:00:50;;;;;;;6.55;3.90;;;6.30;99.90;;;;;;4892345;29;20048;-74
2023/12/20 12:03:16;;;;;;;7.60;4.28;;;6.30;99.90;;;;;;4894017;29;20486;-73
2023/12/20 12:05:41;;;;;;;8.15;4.22;;;6.40;99.90;;;;;;4893596;29;20043;-74
2023/12/20 12:08:07;;;;;;;9.25;5.03;;;6.50;99.90;;;;;;4892752;29;20044;-74
2023/12/20 12:10:33;;;;;;;10.98;3.92;;;6.70;99.90;;;;;;4892934;29;20162;-74
2023/12/20 12:13:00;;;;;;;7.88;4.07;;;6.80;99.90;;;;;;4890866;29;20804;-73
2023/12/20 12:15:26;;;;;;;7.25;4.55;;;6.80;99.90;;;;;;4890768;29;20479;-74
2023/12/20 12:17:56;;;;;;;7.95;4.03;;;6.80;99.80;;;;;;4891653;29;20070;-73
2023/12/20 12:20:22;;;;;;;8.60;3.65;;;6.90;99.90;;;;;;4892656;29;20071;-74
2023/12/20 12:23:01;;;;;;;10.80;3.78;;;7.00;99.30;;;;;;4890651;29;20044;-73
2023/12/20 12:25:28;;;;;;;6.43;3.95;;;6.90;99.30;;;;;;4890635;29;20040;-73
2023/12/20 12:27:54;;;;;;;7.25;3.13;;;6.90;99.00;;;;;;4890509;29;20040;-74
2023/12/20 12:30:19;;;;;;;8.98;3.17;;;6.90;99.30;;;;;;4890673;29;20025;-73
2023/12/20 12:32:45;;;;;;;8.52;3.47;;;6.90;99.50;;;;;;4871659;29;20443;-73
2023/12/20 12:35:11;;;;;;;7.57;4.05;;;6.80;99.60;;;;;;4891040;29;20138;-73
2023/12/20 12:37:41;;;;;;;9.23;3.78;;;6.70;99.50;;;;;;4890066;29;20040;-74
2023/12/20 12:40:11;;;;;;;6.72;3.80;;;6.70;99.90;;;;;;4889673;29;20044;-73
2023/12/20 12:42:38;;;;;;;7.32;4.00;;;6.60;99.90;;;;;;4889933;29;20580;-74
2023/12/20 12:45:04;;;;;;;10.48;5.15;;;6.60;99.90;;;;;;4892238;29;20044;-73
2023/12/20 12:47:30;;;;;;;10.73;4.97;;;6.40;99.90;;;;;;4889009;29;20072;-73
2023/12/20 12:49:56;;;;;;;9.43;4.85;;;6.40;99.90;;;;;;4890276;29;20476;-73
2023/12/20 12:52:22;;;;;;;6.63;4.30;;;6.40;99.90;;;;;;4890703;29;20051;-73
2023/12/20 12:54:48;;;;;;;12.40;6.40;;;6.40;99.90;;;;;;4890272;29;20040;-73